Albert, Oklahoma
Current Conditions -  °F | °C
As of 1:35 PM on Monday 22 Dec 2014 (Local Time) from KOJA Reporting Station
Clear Clear  
Wind Chill: 55°   Ceiling: Unl
Heat Index: 55°   Visibility: 10mi
Dew Point: 34°   Wind: 14mph
Humidity: 44%   Direction: 340°NNW
Pressure: 29.59"   Gusts: 17mph
Location:  35.23°N, 98.41°W
Report Text: KOJA 221935Z AUTO 34012G15KT 10SM CLR 13/01 A2959 RMK AO2
Loading
Personal Weather Stations






























Interactive Weather Map New forecast layout! Learn more

10-Day Weather Forecast

Advertisements
Track Severe Weather on mobile